Time;durP1;ratioP1;P1;durP2;ratioP2;P2;SDS_P1;SDS_P2;PMS_P1;PMS_P2;Temp;Humidity;BMP_temperature;BMP_pressure;BME280_temperature;BME280_humidity;BME280_pressure;Samples;Min_cycle;Max_cycle;Signal;HPM_P1;HPM_P2
2022/03/18 00:02:04;;;;;;;53.88;31.02;;;10.40;52.40;;;;;;5053930;28;20051;-83
2022/03/18 00:04:29;;;;;;;57.28;33.47;;;10.20;52.60;;;;;;5070423;28;20037;-84
2022/03/18 00:06:55;;;;;;;61.03;33.85;;;10.30;52.60;;;;;;5052781;28;20021;-85
2022/03/18 00:09:21;;;;;;;56.67;33.85;;;10.50;52.30;;;;;;5053176;28;20033;-81
2022/03/18 00:11:47;;;;;;;52.80;30.73;;;10.60;52.30;;;;;;5053124;28;20119;-82
2022/03/18 00:14:14;;;;;;;52.50;30.85;;;10.40;51.10;;;;;;5054564;28;20060;-82
2022/03/18 00:16:40;;;;;;;56.85;31.17;;;10.30;51.10;;;;;;5073879;28;20032;-81
2022/03/18 00:19:06;;;;;;;57.83;31.52;;;10.10;51.20;;;;;;5073022;28;20487;-83
2022/03/18 00:21:34;;;;;;;51.15;29.92;;;9.90;52.00;;;;;;5074222;28;20428;-79
2022/03/18 00:24:00;;;;;;;53.17;30.52;;;9.90;51.90;;;;;;5072640;28;20031;-79
2022/03/18 00:26:26;;;;;;;57.10;31.08;;;10.10;51.90;;;;;;5066460;28;20052;-78
2022/03/18 00:28:52;;;;;;;56.15;32.47;;;10.00;52.90;;;;;;5073835;28;20067;-77
2022/03/18 00:31:18;;;;;;;51.00;31.15;;;9.80;52.50;;;;;;5073112;28;20032;-81
2022/03/18 00:33:43;;;;;;;56.92;33.38;;;9.80;52.50;;;;;;5072989;28;20037;-81
2022/03/18 00:36:09;;;;;;;53.00;31.83;;;9.60;53.30;;;;;;5059074;28;20479;-79
2022/03/18 00:38:35;;;;;;;52.88;32.00;;;9.80;52.60;;;;;;5053621;28;20029;-85
2022/03/18 00:41:01;;;;;;;58.28;32.08;;;10.00;53.20;;;;;;5054046;28;20025;-85
2022/03/18 00:43:27;;;;;;;53.92;31.67;;;10.10;52.90;;;;;;5053282;28;20032;-84
2022/03/18 00:45:53;;;;;;;56.58;31.20;;;10.10;52.70;;;;;;5066171;28;20021;-82
2022/03/18 00:53:47;;;;;;;54.88;30.73;;;9.90;52.00;;;;;;5073766;28;20043;-80
2022/03/18 00:56:13;;;;;;;51.63;29.30;;;9.30;52.90;;;;;;5056089;28;20029;-79
2022/03/18 00:58:38;;;;;;;53.95;31.23;;;8.80;54.20;;;;;;5071963;28;20036;-81
2022/03/18 01:01:04;;;;;;;56.00;30.50;;;8.40;54.90;;;;;;5073450;28;20020;-81
2022/03/18 01:03:30;;;;;;;53.55;31.58;;;8.10;55.80;;;;;;5073431;28;20043;-79
2022/03/18 01:05:56;;;;;;;56.33;32.00;;;8.20;56.10;;;;;;5057804;28;20464;-80
2022/03/18 01:08:22;;;;;;;54.78;31.15;;;8.40;55.20;;;;;;5053246;28;20052;-82
2022/03/18 01:10:48;;;;;;;54.50;31.90;;;8.40;55.40;;;;;;5053525;28;20029;-77
2022/03/18 01:13:14;;;;;;;54.10;30.30;;;8.30;55.50;;;;;;5053087;28;20103;-81
2022/03/18 01:15:40;;;;;;;50.97;30.55;;;8.20;55.40;;;;;;5067225;28;20115;-82
2022/03/18 01:18:06;;;;;;;55.08;32.42;;;8.50;54.90;;;;;;5072131;28;20116;-82
2022/03/18 01:20:31;;;;;;;57.08;32.30;;;8.60;55.20;;;;;;5052341;28;20025;-78
2022/03/18 01:22:57;;;;;;;59.03;31.15;;;8.80;55.00;;;;;;5053149;28;20025;-81
2022/03/18 01:25:23;;;;;;;55.40;31.25;;;9.00;54.70;;;;;;5063514;28;20031;-83
2022/03/18 01:27:48;;;;;;;54.25;30.52;;;9.00;54.70;;;;;;5072185;28;20109;-78
2022/03/18 01:30:14;;;;;;;53.72;31.17;;;9.10;54.60;;;;;;5076856;28;20398;-80
2022/03/18 01:32:41;;;;;;;55.50;30.83;;;8.90;54.30;;;;;;5075912;28;20063;-78
2022/03/18 01:35:07;;;;;;;57.63;32.20;;;9.00;53.80;;;;;;5063783;28;20021;-80
2022/03/18 01:37:33;;;;;;;54.15;29.77;;;9.10;53.80;;;;;;5056116;28;20128;-81
2022/03/18 01:39:59;;;;;;;50.70;29.33;;;9.10;53.10;;;;;;5056040;28;20120;-80
2022/03/18 01:42:25;;;;;;;56.92;30.42;;;9.00;53.40;;;;;;5062502;28;20455;-81
2022/03/18 01:44:51;;;;;;;56.35;31.73;;;8.90;53.70;;;;;;5076945;28;20159;-80
2022/03/18 01:47:18;;;;;;;58.95;32.22;;;9.10;53.60;;;;;;5076035;28;20020;-78
2022/03/18 01:49:44;;;;;;;53.80;30.08;;;9.40;52.70;;;;;;5077171;28;20021;-78
2022/03/18 01:52:11;;;;;;;54.55;31.35;;;9.40;53.20;;;;;;5071707;28;20036;-78
2022/03/18 01:54:49;;;;;;;58.65;31.85;;;9.00;53.90;;;;;;5055315;28;20476;-80
2022/03/18 01:57:18;;;;;;;58.90;34.38;;;8.80;54.70;;;;;;5056794;28;20025;-79
2022/03/18 01:59:45;;;;;;;58.22;32.88;;;8.80;55.00;;;;;;5055518;28;20028;-84
2022/03/18 02:02:11;;;;;;;59.72;34.22;;;8.90;54.90;;;;;;5055844;28;20036;-82
2022/03/18 02:04:37;;;;;;;58.42;34.05;;;8.80;55.80;;;;;;5056786;28;20025;-80
2022/03/18 02:07:04;;;;;;;61.97;35.40;;;8.00;58.00;;;;;;5056612;28;20429;-77
2022/03/18 02:09:31;;;;;;;67.95;37.28;;;7.00;62.10;;;;;;5055461;28;20032;-76
2022/03/18 02:11:57;;;;;;;66.32;35.42;;;6.90;63.30;;;;;;5055509;28;20075;-80
2022/03/18 02:14:34;;;;;;;66.03;35.78;;;7.60;61.60;;;;;;5056125;28;20106;-80
2022/03/18 02:17:02;;;;;;;60.15;35.50;;;8.20;58.40;;;;;;5056873;28;20025;-81
2022/03/18 02:19:28;;;;;;;61.45;35.20;;;8.30;58.30;;;;;;5057098;28;20523;-83
2022/03/18 02:21:55;;;;;;;64.70;35.70;;;8.40;57.20;;;;;;5060997;28;20020;-84
2022/03/18 02:24:22;;;;;;;66.65;35.83;;;8.30;57.00;;;;;;5075634;28;20031;-83
2022/03/18 02:26:49;;;;;;;65.28;35.45;;;8.50;56.30;;;;;;5075619;28;20581;-84
2022/03/18 02:29:17;;;;;;;64.70;36.75;;;8.40;56.50;;;;;;5076926;28;20021;-85
2022/03/18 02:31:44;;;;;;;71.40;36.65;;;8.60;56.10;;;;;;5070823;28;20078;-81
2022/03/18 02:34:10;;;;;;;61.80;35.80;;;8.70;55.60;;;;;;5055993;28;20419;-81
2022/03/18 02:36:36;;;;;;;65.72;37.05;;;8.90;55.00;;;;;;5055991;28;20021;-83
2022/03/18 02:39:01;;;;;;;74.90;38.40;;;9.10;55.00;;;;;;5054835;28;20388;-81
2022/03/18 02:41:27;;;;;;;70.85;36.13;;;9.50;54.50;;;;;;5057934;28;20457;-80
2022/03/18 02:43:53;;;;;;;64.13;34.53;;;9.70;53.20;;;;;;5074761;28;20059;-77
2022/03/18 02:46:18;;;;;;;64.15;36.25;;;9.60;52.80;;;;;;5076361;28;20021;-84
2022/03/18 02:48:44;;;;;;;65.38;36.03;;;9.30;53.00;;;;;;5075007;28;20025;-85
2022/03/18 02:51:10;;;;;;;69.25;36.67;;;9.30;53.10;;;;;;5075571;28;20169;-84
2022/03/18 02:53:37;;;;;;;66.63;37.58;;;9.20;53.40;;;;;;5056185;28;20072;-86
2022/03/18 02:56:04;;;;;;;60.20;33.92;;;9.40;52.90;;;;;;5055298;28;20025;-84
2022/03/18 02:58:30;;;;;;;62.80;34.90;;;9.50;52.80;;;;;;5056415;28;20029;-84
2022/03/18 03:00:56;;;;;;;69.47;36.80;;;9.50;52.40;;;;;;5063468;28;20031;-84
2022/03/18 03:03:22;;;;;;;69.35;38.38;;;9.40;52.40;;;;;;5074586;28;20028;-84
2022/03/18 03:08:32;;;;;;;66.55;35.15;;;9.60;53.20;;;;;;5076456;28;20044;-85
2022/03/18 03:10:58;;;;;;;68.60;36.35;;;9.70;53.30;;;;;;5066046;28;20020;-83
2022/03/18 03:13:24;;;;;;;61.40;35.00;;;9.80;51.90;;;;;;5055519;28;20511;-86
2022/03/18 03:15:50;;;;;;;60.83;33.85;;;9.70;51.80;;;;;;5054890;28;20025;-85
2022/03/18 03:18:16;;;;;;;59.47;34.10;;;9.80;52.00;;;;;;5054962;28;20102;-85
2022/03/18 03:20:42;;;;;;;65.13;34.63;;;9.60;51.70;;;;;;5060730;28;20020;-83
2022/03/18 03:23:09;;;;;;;63.28;34.38;;;9.60;51.80;;;;;;5074696;28;20027;-86
2022/03/18 03:25:35;;;;;;;68.97;37.25;;;9.70;51.70;;;;;;5074804;28;20474;-85
2022/03/18 03:28:01;;;;;;;66.38;35.72;;;9.60;52.50;;;;;;5074801;28;20112;-84
2022/03/18 03:30:26;;;;;;;75.47;38.90;;;9.60;52.60;;;;;;5074648;28;20051;-84
2022/03/18 03:32:52;;;;;;;64.80;35.28;;;9.50;53.50;;;;;;5074660;28;20120;-87
2022/03/18 03:35:18;;;;;;;60.28;33.30;;;9.50;53.40;;;;;;5074664;28;20044;-85
2022/03/18 03:37:45;;;;;;;59.88;32.63;;;9.60;52.30;;;;;;5074489;28;20047;-77
2022/03/18 03:40:13;;;;;;;58.60;33.10;;;9.80;51.80;;;;;;5060165;28;20025;-84
2022/03/18 03:42:42;;;;;;;64.15;35.58;;;9.90;51.20;;;;;;5055567;28;20028;-86
2022/03/18 03:45:13;;;;;;;59.92;33.83;;;9.90;51.10;;;;;;5054511;28;20593;-83
2022/03/18 03:47:39;;;;;;;;;;;9.60;51.10;;;;;;5054761;28;20028;-85
2022/03/18 03:50:06;;;;;;;67.75;36.08;;;9.40;51.20;;;;;;5069192;28;19958;-85
2022/03/18 03:52:32;;;;;;;65.38;34.90;;;9.30;51.80;;;;;;5073146;28;20077;-84
2022/03/18 03:54:58;;;;;;;60.35;34.17;;;9.30;52.40;;;;;;5074103;28;20024;-84
2022/03/18 03:57:23;;;;;;;66.15;36.00;;;9.30;52.10;;;;;;5074652;28;20438;-83
2022/03/18 03:59:49;;;;;;;63.25;34.10;;;9.40;51.90;;;;;;5074313;28;20489;-86
2022/03/18 04:02:15;;;;;;;62.45;33.70;;;9.40;52.10;;;;;;5075156;28;20146;-85
2022/03/18 04:04:40;;;;;;;61.40;32.90;;;9.30;52.50;;;;;;5075381;28;20024;-85
2022/03/18 04:07:07;;;;;;;62.15;34.17;;;9.10;52.00;;;;;;5074038;28;20391;-85
2022/03/18 04:09:33;;;;;;;66.00;34.83;;;9.00;52.20;;;;;;5059198;28;20025;-85
2022/03/18 04:11:59;;;;;;;62.17;34.15;;;8.90;52.30;;;;;;5059104;28;20044;-83
2022/03/18 04:14:24;;;;;;;65.15;35.67;;;8.90;52.70;;;;;;5074547;28;20485;-84
2022/03/18 04:16:50;;;;;;;67.88;37.63;;;8.90;52.60;;;;;;5075000;28;20459;-84
2022/03/18 04:19:15;;;;;;;68.47;36.75;;;9.10;52.40;;;;;;5058066;28;20039;-81
2022/03/18 04:21:42;;;;;;;58.47;33.90;;;9.20;52.50;;;;;;5054194;28;20082;-84
2022/03/18 04:24:08;;;;;;;66.93;36.42;;;9.10;52.20;;;;;;5053495;28;20025;-85
2022/03/18 04:26:33;;;;;;;65.03;33.42;;;9.00;52.10;;;;;;5054008;28;20048;-86
2022/03/18 04:28:59;;;;;;;63.10;34.40;;;8.80;52.20;;;;;;5061012;28;20128;-86
2022/03/18 04:31:25;;;;;;;67.45;35.90;;;8.80;52.70;;;;;;5054870;28;20480;-78
2022/03/18 04:33:50;;;;;;;66.90;35.80;;;8.90;52.50;;;;;;5054006;28;20066;-77
2022/03/18 04:36:16;;;;;;;70.60;36.88;;;8.80;52.70;;;;;;5062122;28;20099;-85
2022/03/18 04:38:42;;;;;;;76.28;38.58;;;8.70;52.60;;;;;;5074068;28;20530;-77
2022/03/18 04:41:07;;;;;;;89.32;43.33;;;8.80;52.90;;;;;;5072715;28;20020;-82
2022/03/18 04:43:33;;;;;;;89.05;43.17;;;9.00;52.50;;;;;;5071965;28;20028;-78
2022/03/18 04:45:59;;;;;;;82.65;42.80;;;9.20;52.90;;;;;;5052594;28;20033;-86
2022/03/18 04:48:24;;;;;;;82.22;40.05;;;9.30;52.70;;;;;;5053791;28;20029;-87
2022/03/18 04:50:50;;;;;;;79.47;40.22;;;9.20;52.40;;;;;;5057395;28;20479;-76
2022/03/18 04:53:16;;;;;;;76.70;38.63;;;9.40;52.00;;;;;;5068839;28;20517;-77
2022/03/18 04:55:42;;;;;;;84.70;41.47;;;9.40;52.20;;;;;;5079182;28;20055;-86
2022/03/18 04:58:07;;;;;;;79.65;39.13;;;9.50;52.20;;;;;;5072460;28;20025;-78
2022/03/18 05:00:35;;;;;;;74.20;38.72;;;9.50;52.10;;;;;;5064611;28;20154;-79
2022/03/18 05:03:01;;;;;;;79.80;40.47;;;9.50;51.30;;;;;;5052615;28;20029;-84
2022/03/18 05:05:27;;;;;;;77.88;38.47;;;9.30;51.80;;;;;;5052739;28;20017;-83
2022/03/18 05:07:53;;;;;;;70.65;36.28;;;9.10;52.10;;;;;;5077562;28;20021;-79
2022/03/18 05:10:19;;;;;;;74.43;39.55;;;8.90;51.90;;;;;;5081455;28;20021;-84
2022/03/18 05:12:46;;;;;;;77.40;38.20;;;9.00;52.00;;;;;;5072384;28;20029;-85
2022/03/18 05:15:13;;;;;;;68.40;36.10;;;9.00;52.10;;;;;;5077808;28;20044;-81
2022/03/18 05:17:40;;;;;;;74.85;37.75;;;9.00;52.50;;;;;;5051509;28;20223;-81
2022/03/18 05:20:09;;;;;;;72.53;38.00;;;9.00;52.50;;;;;;5068799;28;20391;-80
2022/03/18 05:22:35;;;;;;;70.70;38.90;;;9.00;52.50;;;;;;5066322;28;20029;-77
2022/03/18 05:25:01;;;;;;;75.80;38.60;;;9.20;52.60;;;;;;5080608;28;20035;-82
2022/03/18 05:27:27;;;;;;;71.45;37.20;;;9.40;52.40;;;;;;5092011;28;20020;-84
2022/03/18 05:29:53;;;;;;;78.93;40.25;;;9.50;52.20;;;;;;5073969;28;20032;-83
2022/03/18 05:32:19;;;;;;;68.05;37.45;;;9.50;52.30;;;;;;5071199;28;20070;-82
2022/03/18 05:34:45;;;;;;;70.57;36.17;;;9.50;51.90;;;;;;5072407;28;20395;-81
2022/03/18 05:37:11;;;;;;;76.28;38.25;;;9.30;52.00;;;;;;5086732;28;20028;-83
2022/03/18 05:39:37;;;;;;;68.57;37.22;;;9.40;52.50;;;;;;5093354;28;20035;-77
2022/03/18 05:42:04;;;;;;;66.13;34.75;;;9.40;52.80;;;;;;5065624;28;20021;-84
2022/03/18 05:44:30;;;;;;;67.72;36.83;;;9.70;52.20;;;;;;5052293;28;20124;-82
2022/03/18 05:46:56;;;;;;;63.90;34.65;;;9.80;51.50;;;;;;5052107;28;20107;-81
2022/03/18 05:49:22;;;;;;;71.07;36.80;;;10.00;52.00;;;;;;5052594;28;20028;-84
2022/03/18 05:51:48;;;;;;;65.38;36.72;;;10.00;51.30;;;;;;5053168;28;20017;-83
2022/03/18 05:54:14;;;;;;;68.43;37.58;;;10.20;51.30;;;;;;5056141;28;20391;-84
2022/03/18 05:56:53;;;;;;;59.28;33.60;;;10.20;51.60;;;;;;5070228;28;20035;-84
2022/03/18 05:59:23;;;;;;;62.25;35.72;;;10.00;51.60;;;;;;5070732;28;20073;-85
2022/03/18 06:01:49;;;;;;;57.50;35.05;;;9.50;52.50;;;;;;5092225;28;20158;-84
2022/03/18 06:04:15;;;;;;;58.33;33.70;;;9.80;52.40;;;;;;5078589;28;20029;-86
2022/03/18 06:06:43;;;;;;;62.85;34.40;;;10.10;51.80;;;;;;5053408;28;20025;-84
2022/03/18 06:11:55;;;;;;;61.55;34.55;;;10.80;50.70;;;;;;5071008;28;20032;-82
2022/03/18 06:14:24;;;;;;;62.58;35.88;;;11.00;50.40;;;;;;5062705;28;20170;-81
2022/03/18 06:16:52;;;;;;;66.78;37.78;;;11.10;50.50;;;;;;5068602;28;20036;-84
2022/03/18 06:19:20;;;;;;;63.63;35.92;;;11.10;50.40;;;;;;5055466;28;20028;-85
2022/03/18 06:21:46;;;;;;;58.60;34.65;;;10.90;50.40;;;;;;5055102;28;20029;-80
2022/03/18 06:24:13;;;;;;;75.85;42.92;;;10.70;50.80;;;;;;5056364;28;20021;-83
2022/03/18 06:26:39;;;;;;;68.68;38.00;;;10.40;51.60;;;;;;5056843;28;20027;-84
2022/03/18 06:29:07;;;;;;;54.80;31.52;;;10.40;51.30;;;;;;5056809;28;20507;-83
2022/03/18 06:31:34;;;;;;;55.35;32.22;;;10.10;51.30;;;;;;5055539;28;20057;-84
2022/03/18 06:34:00;;;;;;;52.85;30.00;;;10.00;51.60;;;;;;5056473;28;20043;-84
2022/03/18 06:36:27;;;;;;;51.28;29.45;;;10.20;51.40;;;;;;5055570;28;20064;-84
2022/03/18 06:38:53;;;;;;;44.65;27.10;;;10.60;50.30;;;;;;4705215;28;10000371;-86
2022/03/18 06:41:19;;;;;;;39.92;24.08;;;10.90;49.30;;;;;;5054981;28;20029;-87
2022/03/18 06:43:47;;;;;;;36.72;22.36;;;11.20;48.30;;;;;;4705174;28;10000939;-86
2022/03/18 06:46:14;;;;;;;39.88;20.60;;;11.30;47.30;;;;;;5074166;28;20052;-87
2022/03/18 06:48:40;;;;;;;33.50;19.08;;;11.40;47.30;;;;;;5075229;28;20123;-87
2022/03/18 06:51:07;;;;;;;27.33;17.20;;;11.30;46.40;;;;;;5074568;28;20021;-84
2022/03/18 06:53:33;;;;;;;27.58;16.45;;;10.90;46.40;;;;;;5074236;28;20036;-84
2022/03/18 06:55:58;;;;;;;29.58;16.95;;;10.80;46.70;;;;;;5075117;28;20031;-83
2022/03/18 06:58:24;;;;;;;27.05;15.57;;;10.90;46.70;;;;;;5075943;28;20024;-83
2022/03/18 07:00:50;;;;;;;26.05;15.50;;;10.70;45.80;;;;;;5074245;28;20028;-84
2022/03/18 07:03:16;;;;;;;24.73;14.57;;;10.80;46.20;;;;;;5074574;28;20501;-84
2022/03/18 07:05:41;;;;;;;31.27;15.38;;;10.90;45.70;;;;;;5075679;28;20021;-84
2022/03/18 07:08:07;;;;;;;28.42;14.82;;;11.20;45.50;;;;;;5074236;28;20364;-83
2022/03/18 07:10:32;;;;;;;23.30;14.50;;;11.40;44.70;;;;;;5075532;28;20025;-84
2022/03/18 07:12:58;;;;;;;22.67;14.57;;;11.50;44.30;;;;;;5074297;28;20094;-82
2022/03/18 07:15:24;;;;;;;24.70;13.70;;;11.30;44.50;;;;;;5075405;28;20020;-83
2022/03/18 07:17:55;;;;;;;21.48;13.63;;;11.00;43.70;;;;;;5075756;28;20029;-83
2022/03/18 07:20:25;;;;;;;24.58;14.10;;;11.00;44.60;;;;;;5075501;28;20092;-83
2022/03/18 07:23:05;;;;;;;21.45;12.50;;;11.10;44.90;;;;;;5074201;28;20494;-85
2022/03/18 07:25:31;;;;;;;25.70;14.05;;;10.90;42.00;;;;;;5074942;28;20090;-82
2022/03/18 07:27:57;;;;;;;24.55;14.15;;;10.80;44.90;;;;;;5075469;28;20028;-84
2022/03/18 07:30:23;;;;;;;21.30;11.73;;;11.00;43.70;;;;;;5075396;28;20070;-83
2022/03/18 07:32:49;;;;;;;20.40;11.80;;;11.40;43.10;;;;;;5073926;28;20055;-82
2022/03/18 07:35:15;;;;;;;21.77;12.95;;;11.40;42.40;;;;;;5074192;28;20439;-84
2022/03/18 07:37:42;;;;;;;22.73;12.40;;;11.60;43.40;;;;;;5074060;28;20029;-83
2022/03/18 07:40:09;;;;;;;20.67;11.90;;;11.70;41.70;;;;;;5073927;28;20028;-81
2022/03/18 07:42:42;;;;;;;17.40;10.88;;;12.00;40.60;;;;;;5075145;28;20108;-85
2022/03/18 07:45:16;;;;;;;20.40;11.85;;;12.30;40.40;;;;;;5074061;28;20020;-84
2022/03/18 07:47:41;;;;;;;20.15;11.07;;;12.30;39.80;;;;;;5073415;28;20119;-85
2022/03/18 07:50:07;;;;;;;17.08;10.32;;;12.10;39.70;;;;;;5072822;28;20100;-83
2022/03/18 07:52:33;;;;;;;16.33;10.13;;;12.20;39.00;;;;;;5073405;28;20127;-84
2022/03/18 07:54:59;;;;;;;16.38;10.00;;;12.40;39.20;;;;;;5073821;28;20159;-86
2022/03/18 07:57:25;;;;;;;21.63;11.15;;;12.30;38.00;;;;;;5073125;28;20113;-83
2022/03/18 07:59:50;;;;;;;18.52;10.50;;;12.00;38.80;;;;;;5071244;28;20024;-84
2022/03/18 08:02:16;;;;;;;19.58;10.85;;;12.20;38.90;;;;;;5072474;28;20361;-85
2022/03/18 08:04:42;;;;;;;17.05;10.70;;;12.40;38.30;;;;;;5071056;28;20185;-83
2022/03/18 08:07:08;;;;;;;17.55;11.30;;;12.80;38.50;;;;;;5071093;28;20059;-87
2022/03/18 08:09:33;;;;;;;19.38;11.90;;;12.30;37.50;;;;;;5072352;28;20028;-83
2022/03/18 08:11:59;;;;;;;17.95;11.30;;;11.90;38.70;;;;;;5072092;28;20021;-81
2022/03/18 08:14:25;;;;;;;18.38;11.57;;;11.40;38.30;;;;;;5073441;28;20049;-83
2022/03/18 08:16:51;;;;;;;21.48;12.52;;;11.50;41.30;;;;;;5073348;28;20107;-84
2022/03/18 08:19:17;;;;;;;21.20;11.13;;;12.10;39.40;;;;;;5074616;28;20099;-83
2022/03/18 08:21:43;;;;;;;19.02;11.20;;;12.50;38.90;;;;;;5072847;28;20031;-86
2022/03/18 08:24:09;;;;;;;21.13;11.50;;;12.70;38.90;;;;;;5072763;28;20035;-82
2022/03/18 08:26:37;;;;;;;19.05;12.05;;;12.60;38.40;;;;;;5073006;28;20021;-83
2022/03/18 08:29:04;;;;;;;18.13;11.75;;;12.40;38.80;;;;;;5072959;28;20032;-85
2022/03/18 08:31:30;;;;;;;19.73;11.18;;;12.30;39.00;;;;;;5073992;28;20024;-84
2022/03/18 08:33:56;;;;;;;20.92;11.65;;;12.40;38.30;;;;;;5072601;28;20036;-82
2022/03/18 08:36:22;;;;;;;20.30;11.77;;;12.70;39.30;;;;;;5072592;28;20023;-84
2022/03/18 08:38:48;;;;;;;19.13;12.57;;;13.00;38.70;;;;;;5072327;28;20028;-85
2022/03/18 08:41:14;;;;;;;20.15;11.65;;;13.30;39.20;;;;;;5072900;28;20428;-84
2022/03/18 08:43:40;;;;;;;22.45;12.43;;;13.40;37.90;;;;;;5072600;28;20024;-85
2022/03/18 08:46:06;;;;;;;17.58;11.57;;;13.40;37.50;;;;;;4019453;28;10000708;-84
2022/03/18 08:48:31;;;;;;;23.08;12.73;;;13.50;38.00;;;;;;5071581;28;20032;-84
2022/03/18 08:50:58;;;;;;;22.52;11.75;;;13.40;38.20;;;;;;5072756;28;20052;-85
2022/03/18 08:53:23;;;;;;;17.17;11.95;;;13.50;38.10;;;;;;5071197;28;20033;-85
2022/03/18 08:55:49;;;;;;;18.70;11.80;;;13.50;38.40;;;;;;5072533;28;20029;-83
2022/03/18 08:58:15;;;;;;;21.30;12.85;;;13.70;37.90;;;;;;5072676;28;20031;-84
2022/03/18 09:00:41;;;;;;;18.98;12.52;;;13.70;38.10;;;;;;5072256;28;20023;-84
2022/03/18 09:03:07;;;;;;;20.80;12.50;;;13.90;37.80;;;;;;5073592;28;20107;-85
2022/03/18 09:05:33;;;;;;;18.50;11.77;;;14.10;37.30;;;;;;5072603;28;20029;-84
2022/03/18 09:07:59;;;;;;;19.35;12.15;;;14.20;37.00;;;;;;5073241;28;20021;-84
2022/03/18 09:10:24;;;;;;;18.77;12.60;;;13.80;37.10;;;;;;5072410;28;20024;-85
2022/03/18 09:12:55;;;;;;;21.73;12.40;;;13.40;37.90;;;;;;5073194;28;20080;-84
2022/03/18 09:15:21;;;;;;;19.77;12.45;;;13.30;37.90;;;;;;5072287;28;20025;-84
2022/03/18 09:17:47;;;;;;;19.70;12.63;;;13.40;38.10;;;;;;5072256;28;20040;-83
2022/03/18 09:20:13;;;;;;;21.88;12.38;;;13.70;38.20;;;;;;5072336;28;20036;-86
2022/03/18 09:22:39;;;;;;;22.08;13.10;;;14.00;37.50;;;;;;5073405;28;20028;-85
2022/03/18 09:25:05;;;;;;;22.92;14.02;;;14.00;37.20;;;;;;5072055;28;20048;-87
2022/03/18 09:27:32;;;;;;;24.15;14.90;;;13.90;37.00;;;;;;5073755;28;20078;-86
2022/03/18 09:30:00;;;;;;;27.75;18.08;;;13.40;37.40;;;;;;5072526;28;20065;-86
2022/03/18 09:32:29;;;;;;;21.33;12.52;;;13.40;37.70;;;;;;5072297;28;20040;-85
2022/03/18 09:34:56;;;;;;;22.38;12.38;;;13.60;38.10;;;;;;5073340;28;20035;-84
2022/03/18 09:37:22;;;;;;;21.70;12.75;;;13.70;37.70;;;;;;5073135;28;20027;-85
2022/03/18 09:39:48;;;;;;;22.33;12.48;;;13.90;37.90;;;;;;5072178;28;20024;-82
2022/03/18 09:42:13;;;;;;;22.13;15.77;;;14.20;37.90;;;;;;5073242;28;20158;-85
2022/03/18 09:44:40;;;;;;;26.20;15.60;;;14.20;37.70;;;;;;5072027;28;20105;-86
2022/03/18 09:47:07;;;;;;;21.75;13.13;;;14.10;36.70;;;;;;5071714;28;20032;-86
2022/03/18 09:49:34;;;;;;;24.10;14.63;;;13.90;37.00;;;;;;5073560;28;20036;-82
2022/03/18 09:51:59;;;;;;;19.73;13.32;;;13.70;38.00;;;;;;5076785;28;20043;-81
2022/03/18 09:54:29;;;;;;;18.85;13.07;;;14.10;37.50;;;;;;5075309;28;20032;-86
2022/03/18 09:56:56;;;;;;;23.35;14.63;;;14.30;38.00;;;;;;5075734;28;20031;-84
2022/03/18 09:59:24;;;;;;;21.25;13.55;;;14.80;37.90;;;;;;5075400;28;20476;-82
2022/03/18 10:01:50;;;;;;;20.77;12.57;;;15.10;37.40;;;;;;5076380;28;20052;-85
2022/03/18 10:04:16;;;;;;;20.77;13.45;;;15.40;36.20;;;;;;5076891;28;20040;-86
2022/03/18 10:06:43;;;;;;;21.73;13.38;;;14.90;36.30;;;;;;5076652;28;20395;-80
2022/03/18 10:09:10;;;;;;;24.02;15.35;;;14.30;37.10;;;;;;5074877;28;20078;-84
2022/03/18 10:11:43;;;;;;;23.30;14.02;;;14.30;36.30;;;;;;5076830;28;20024;-81
2022/03/18 10:14:13;;;;;;;22.90;14.30;;;13.90;37.50;;;;;;5076536;28;20551;-86
2022/03/18 10:16:40;;;;;;;;;;;13.90;37.10;;;;;;5077184;28;20028;-86
2022/03/18 10:19:13;;;;;;;18.65;13.15;;;14.40;37.50;;;;;;5076514;28;19904;-84
2022/03/18 10:22:10;;;;;;;22.25;12.95;;;14.70;36.60;;;;;;5076469;28;20033;-84
2022/03/18 10:24:38;;;;;;;21.92;13.10;;;15.50;36.50;;;;;;5071461;28;20074;-86
2022/03/18 10:27:25;;;;;;;22.60;14.75;;;15.30;36.50;;;;;;5075160;28;20500;-85
2022/03/18 10:29:53;;;;;;;22.20;14.65;;;15.40;36.00;;;;;;5075005;28;20532;-83
2022/03/18 10:32:21;;;;;;;20.90;14.23;;;15.50;36.10;;;;;;5074725;28;20399;-80
2022/03/18 10:37:50;;;;;;;21.55;14.55;;;16.40;35.00;;;;;;5076100;28;20070;-84
2022/03/18 10:40:17;;;;;;;21.90;13.48;;;16.60;34.80;;;;;;5076059;28;20016;-85
2022/03/18 10:42:59;;;;;;;22.58;13.50;;;15.60;35.30;;;;;;5075430;28;20025;-82
2022/03/18 10:45:25;;;;;;;19.23;13.20;;;15.70;36.30;;;;;;5074442;28;20032;-81
2022/03/18 10:47:52;;;;;;;22.42;13.35;;;15.70;35.30;;;;;;5075919;28;20023;-82
2022/03/18 10:50:29;;;;;;;31.95;19.23;;;16.00;36.60;;;;;;5074743;28;20035;-86
2022/03/18 10:53:05;;;;;;;26.73;17.83;;;16.10;35.20;;;;;;5074650;28;20058;-84
2022/03/18 10:55:37;;;;;;;21.63;14.75;;;15.90;35.40;;;;;;5074323;28;20040;-82
2022/03/18 10:58:12;;;;;;;21.75;13.98;;;16.10;35.40;;;;;;5074193;28;20116;-84
2022/03/18 11:00:40;;;;;;;22.45;14.38;;;16.60;35.30;;;;;;5074239;28;20390;-81
2022/03/18 11:03:06;;;;;;;20.27;14.00;;;16.80;34.90;;;;;;5075104;28;20033;-84
2022/03/18 11:05:40;;;;;;;22.80;14.13;;;16.90;35.20;;;;;;5074404;28;20399;-85
2022/03/18 11:08:10;;;;;;;19.63;13.05;;;16.80;33.90;;;;;;5075471;28;20387;-84
2022/03/18 11:13:38;;;;;;;20.95;13.57;;;17.30;34.90;;;;;;5075615;28;20083;-83
2022/03/18 11:16:04;;;;;;;20.65;13.80;;;17.70;34.70;;;;;;5075388;28;20020;-80
2022/03/18 11:18:31;;;;;;;20.45;14.02;;;18.00;34.30;;;;;;5074055;28;20047;-82
2022/03/18 11:20:58;;;;;;;22.30;14.75;;;18.70;34.50;;;;;;5074503;28;20073;-80
2022/03/18 11:23:25;;;;;;;22.35;13.75;;;18.60;34.10;;;;;;5074104;28;20479;-80
2022/03/18 11:25:55;;;;;;;22.35;14.45;;;18.70;33.90;;;;;;5075030;28;20055;-81
2022/03/18 11:28:22;;;;;;;21.98;14.07;;;19.00;33.70;;;;;;5075303;28;20059;-83
2022/03/18 11:31:00;;;;;;;21.33;14.30;;;18.20;33.30;;;;;;5075200;28;20474;-82
2022/03/18 11:33:26;;;;;;;20.52;14.20;;;17.10;33.90;;;;;;5073656;28;20442;-82
2022/03/18 11:35:52;;;;;;;20.05;14.00;;;15.00;36.40;;;;;;5075119;28;20028;-86
2022/03/18 11:38:26;;;;;;;20.95;14.82;;;14.70;36.50;;;;;;5074983;28;20119;-85
2022/03/18 11:41:00;;;;;;;19.88;13.07;;;14.90;37.00;;;;;;5073534;28;20032;-83
2022/03/18 11:43:39;;;;;;;22.00;14.43;;;14.80;35.90;;;;;;5073708;28;20395;-86
2022/03/18 11:46:16;;;;;;;22.63;14.13;;;14.70;36.20;;;;;;5074757;28;20020;-85
2022/03/18 11:48:56;;;;;;;21.48;13.95;;;14.50;36.70;;;;;;5073724;28;20031;-82
2022/03/18 11:51:29;;;;;;;21.83;14.45;;;13.90;37.20;;;;;;5074809;28;20016;-84
2022/03/18 11:54:13;;;;;;;24.92;14.20;;;14.80;37.20;;;;;;5073824;28;20037;-86
2022/03/18 11:56:49;;;;;;;23.15;14.40;;;15.80;36.30;;;;;;5073568;28;20032;-82
2022/03/18 11:59:29;;;;;;;22.13;14.65;;;16.10;36.10;;;;;;5073881;28;20016;-84
2022/03/18 12:02:02;;;;;;;;;;;16.00;35.90;;;;;;5075169;28;20024;-87
2022/03/18 12:04:34;;;;;;;21.48;14.18;;;16.30;36.10;;;;;;5074376;28;19954;-85
2022/03/18 12:07:16;;;;;;;22.00;13.90;;;16.20;35.10;;;;;;5073138;28;20086;-86
2022/03/18 12:09:54;;;;;;;21.70;14.23;;;15.30;36.00;;;;;;5073485;28;20552;-84
2022/03/18 12:12:43;;;;;;;23.65;14.73;;;15.00;37.00;;;;;;5073116;28;20483;-86
2022/03/18 12:15:17;;;;;;;22.33;14.82;;;15.50;35.80;;;;;;5074016;28;20044;-85
2022/03/18 12:17:52;;;;;;;22.17;14.55;;;15.70;36.60;;;;;;5073303;28;20048;-85
2022/03/18 12:20:22;;;;;;;20.98;14.07;;;15.20;36.70;;;;;;5073306;28;20135;-83
2022/03/18 12:22:50;;;;;;;25.90;15.13;;;15.50;36.50;;;;;;5072745;28;20093;-81
2022/03/18 12:25:16;;;;;;;23.00;15.07;;;15.90;36.00;;;;;;5074230;28;20042;-82
2022/03/18 12:27:44;;;;;;;22.10;15.02;;;16.70;35.60;;;;;;5072843;28;20162;-81
2022/03/18 12:30:14;;;;;;;24.23;15.48;;;16.00;35.30;;;;;;5072820;28;20029;-81
2022/03/18 12:33:02;;;;;;;23.67;14.85;;;16.10;36.40;;;;;;5073836;28;20157;-82
2022/03/18 12:35:34;;;;;;;24.27;15.73;;;16.70;35.10;;;;;;5073923;28;20503;-82
2022/03/18 12:38:14;;;;;;;21.83;15.07;;;16.50;35.40;;;;;;5072926;28;20036;-84
2022/03/18 12:40:53;;;;;;;22.80;15.07;;;16.50;36.50;;;;;;5074001;28;20033;-85
2022/03/18 12:43:19;;;;;;;24.02;15.32;;;16.80;35.70;;;;;;5074037;28;20021;-83
2022/03/18 12:45:45;;;;;;;22.27;14.98;;;16.80;35.20;;;;;;5073794;28;20443;-85
2022/03/18 12:48:17;;;;;;;24.27;15.02;;;16.30;35.60;;;;;;5072810;28;20395;-84
2022/03/18 12:50:51;;;;;;;25.65;16.08;;;16.60;35.90;;;;;;5073607;28;20036;-85